Flight Track Log - Related Links

Times and Time Zones

All times are in EDT time to prevent confusion due to time zone crossing. See the UPS2872 flight status page for this flight to view local times or setup timezone preferences in your user account.

Time Position Orientation Groundspeed Altitude Reporting Facility
EDT Latitude Longitude Course Direction KTS MPH feet Rate Location/Type
Wed 03:59:48 PM 38.1570 -85.7400 169° South 164 189 1,200  Level FlightAware ADS-B
Wed 03:59:52 PM 38.1560 -85.7400 180° South 166 191 1,400 2,200 Climbing FlightAware ADS-B
Wed 04:00:18 PM 38.1330 -85.7430 186° South 195 224 2,300 2,040 Climbing FlightAware ADS-B
Wed 04:00:42 PM 38.1090 -85.7450 184° South 225 259 3,100 2,167 Climbing FlightAware ADS-B
Wed 04:00:54 PM 38.0960 -85.7470 187° South 233 268 3,600 2,400 Climbing FlightAware ADS-B
Wed 04:01:02 PM 38.0880 -85.7520 206° Southwest 236 272 3,900 2,250 Climbing FlightAware ADS-B
Wed 04:01:10 PM 38.0820 -85.7610 230° Southwest 238 274 4,200 3,000 Climbing FlightAware ADS-B
Wed 04:01:14 PM 38.0790 -85.7660 233° Southwest 239 275 4,500 3,500 Climbing FlightAware ADS-B
Wed 04:01:22 PM 38.0760 -85.7760 249° West 238 274 4,900 2,786 Climbing FlightAware ADS-B
Wed 04:01:42 PM 38.0680 -85.8020 249° West 241 277 5,800 2,182 Climbing FlightAware ADS-B
Wed 04:02:06 PM 38.0560 -85.8350 245° Southwest 266 306 6,500 2,609 Climbing FlightAware ADS-B
Wed 04:02:28 PM 38.0450 -85.8640 244° Southwest 262 302 7,800 3,143 Climbing FlightAware ADS-B
Wed 04:02:48 PM 38.0340 -85.8930 244° Southwest 265 305 8,700 2,625 Climbing FlightAware ADS-B
Wed 04:03:00 PM 38.0270 -85.9100 242° Southwest 269 310 9,200 2,375 Climbing FlightAware ADS-B
Wed 04:03:36 PM 38.0080 -85.9590 244° Southwest 280 322 10,600 1,886 Climbing FlightAware ADS-B
Wed 04:04:10 PM 37.9850 -86.0160 243° Southwest 325 374 11,400 1,667 Climbing FlightAware ADS-B
Wed 04:04:48 PM 37.9620 -86.0890 248° West 365 420 12,600 2,160 Climbing FlightAware ADS-B
Wed 04:05:00 PM 37.9600 -86.1120 264° West 369 425 13,200 2,483 Climbing FlightAware ADS-B
Wed 04:05:46 PM 37.9580 -86.1910 268° West 381 438 15,000 3,000 Climbing FlightAware ADS-B
Wed 04:06:24 PM 37.9570 -86.3040 269° West 402 463 17,400 3,205 Climbing FlightAware ADS-B
Wed 04:06:59 PM 37.9560 -86.3880 269° West 417 480 18,900 2,657 Climbing FlightAware ADS-B
Wed 04:07:34 PM 37.9550 -86.4750 269° West 425 489 20,500 2,647 Climbing FlightAware ADS-B
Wed 04:08:07 PM 37.9540 -86.5570 269° West 432 497 21,900 2,418 Climbing FlightAware ADS-B
Wed 04:08:41 PM 37.9520 -86.6460 268° West 442 509 23,200 2,197 Climbing FlightAware ADS-B
Wed 04:09:18 PM 37.9510 -86.7400 269° West 452 520 24,500 2,108 Climbing FlightAware ADS-B
Wed 04:09:55 PM 37.9490 -86.8420 269° West 461 531 25,800 2,083 Climbing FlightAware ADS-B
Wed 04:10:30 PM 37.9470 -86.9350 268° West 469 540 27,000 2,060 Climbing FlightAware ADS-B
Wed 04:11:02 PM 37.9450 -87.0230 268° West 473 544 28,100 2,203 Climbing FlightAware ADS-B
Wed 04:11:49 PM 37.9430 -87.1560 269° West 472 543 29,900 2,214 Climbing FlightAware ADS-B
Wed 04:12:26 PM 37.9400 -87.2550 268° West 469 540 31,200 1,826 Climbing FlightAware ADS-B
Wed 04:12:58 PM 37.9390 -87.3400 269° West 472 543 32,000 706 Climbing FlightAware ADS-B
Wed 04:13:34 PM 37.9360 -87.4430 268° West 477 549 32,000  Level FlightAware ADS-B
Wed 04:14:10 PM 37.9340 -87.5420 269° West 478 550 32,000  Level FlightAware ADS-B
Wed 04:14:42 PM 37.9320 -87.6320 268° West 477 549 32,000  Level FlightAware ADS-B
Wed 04:15:18 PM 37.9290 -87.7340 268° West 475 547 32,000  Level FlightAware ADS-B
Wed 04:15:54 PM 37.9220 -87.8330 265° West 477 549 32,000  Level FlightAware ADS-B
Wed 04:16:31 PM 37.9120 -87.9370 263° West 476 548 32,000  Level FlightAware ADS-B
Wed 04:17:03 PM 37.9040 -88.0240 263° West 476 548 32,000  Level FlightAware ADS-B
Wed 04:17:38 PM 37.8950 -88.1170 263° West 476 548 32,000  Level FlightAware ADS-B
Wed 04:18:16 PM 37.8840 -88.2250 263° West 476 548 32,000  Level FlightAware ADS-B
Wed 04:18:52 PM 37.8740 -88.3250 263° West 477 549 32,000  Level FlightAware ADS-B
Wed 04:19:23 PM 37.8660 -88.4120 263° West 478 550 32,000 794 Level FlightAware ADS-B
Wed 04:20:00 PM 37.8560 -88.5130 263° West 477 549 32,900 1,644 Climbing FlightAware ADS-B
Wed 04:20:36 PM 37.8460 -88.6110 263° West 470 541 34,000 971 Climbing FlightAware ADS-B
Wed 04:21:08 PM 37.8370 -88.6980 263° West 466 536 34,000  Level FlightAware ADS-B
Wed 04:21:48 PM 37.8260 -88.8050 263° West 461 531 34,000  Level FlightAware ADS-B
Wed 04:22:20 PM 37.8170 -88.8900 262° West 461 531 34,000  Level FlightAware ADS-B
Wed 04:22:56 PM 37.8070 -88.9860 263° West 461 531 34,000  Level FlightAware ADS-B
Wed 04:23:30 PM 37.7980 -89.0770 263° West 463 533 34,000  Level FlightAware ADS-B
Wed 04:24:05 PM 37.7880 -89.1730 263° West 463 533 34,000  Level FlightAware ADS-B
Wed 04:24:42 PM 37.7780 -89.2720 263° West 464 534 34,000  Level FlightAware ADS-B
Wed 04:25:14 PM 37.7690 -89.3550 262° West 465 535 34,000  Level FlightAware ADS-B
Wed 04:25:52 PM 37.7590 -89.4440 262° West 464 534 34,000  Level FlightAware ADS-B
Wed 04:26:29 PM 37.7500 -89.5290 262° West 464 534 34,000  Level FlightAware ADS-B
Wed 04:27:00 PM 37.7390 -89.6400 263° West 464 534 34,000  Level FlightAware ADS-B
Wed 04:27:36 PM 37.7280 -89.7380 262° West 462 532 34,000  Level FlightAware ADS-B
Wed 04:28:11 PM 37.7190 -89.8210 262° West 462 532 34,000  Level FlightAware ADS-B
Wed 04:28:48 PM 37.7100 -89.9050 262° West 462 532 34,000  Level FlightAware ADS-B
Wed 04:29:25 PM 37.7000 -89.9890 261° West 462 532 34,000  Level FlightAware ADS-B
Wed 04:30:01 PM 37.6910 -90.0710 262° West 462 532 34,000  Level FlightAware ADS-B
Wed 04:30:37 PM 37.6820 -90.1530 262° West 462 532 34,000  Level FlightAware ADS-B
Wed 04:31:13 PM 37.6730 -90.2350 262° West 462 532 34,000  Level FlightAware ADS-B
Wed 04:31:51 PM 37.6630 -90.3210 262° West 462 532 34,000  Level FlightAware ADS-B
Wed 04:32:27 PM 37.6540 -90.4030 262° West 462 532 34,000  Level FlightAware ADS-B
Wed 04:33:03 PM 37.6450 -90.4850 262° West 462 532 34,000  Level FlightAware ADS-B
Wed 04:33:39 PM 37.6360 -90.5670 262° West 462 532 34,000  Level FlightAware ADS-B
Wed 04:34:15 PM 37.6270 -90.6480 262° West 462 532 34,000  Level FlightAware ADS-B
Wed 04:34:51 PM 37.6180 -90.7300 262° West 462 532 34,000  Level FlightAware ADS-B
Wed 04:35:27 PM 37.6090 -90.8120 262° West 462 532 34,000  Level FlightAware ADS-B
Wed 04:36:03 PM 37.6000 -90.8940 262° West 462 532 34,000  Level FlightAware ADS-B
Wed 04:36:39 PM 37.5910 -90.9750 262° West 462 532 34,000  Level FlightAware ADS-B
Wed 04:37:12 PM 37.5800 -91.2360 267° West 442 509 34,000  Level FlightAware ADS-B
Wed 04:37:48 PM 37.5710 -91.3270 263° West 442 509 34,000  Level FlightAware ADS-B
Wed 04:38:34 PM 37.5600 -91.4240 262° West 442 509 34,000  Level FlightAware ADS-B
Wed 04:39:08 PM 37.5500 -91.5340 263° West 446 513 34,000  Level FlightAware ADS-B
Wed 04:39:42 PM 37.5420 -91.6210 263° West 447 514 34,000 71 Level FlightAware ADS-B
Wed 04:40:33 PM 37.5280 -91.7530 262° West 450 518 34,100 558 Climbing FlightAware ADS-B
Wed 04:41:08 PM 37.5190 -91.8460 263° West 453 521 34,800 1,343 Climbing FlightAware ADS-B
Wed 04:41:40 PM 37.5110 -91.9260 263° West 447 514 35,600 1,059 Climbing FlightAware ADS-B
Wed 04:42:16 PM 37.5100 -92.0200 269° West 434 499 36,000 333 Climbing FlightAware ADS-B
Wed 04:42:52 PM 37.5090 -92.1100 269° West 428 493 36,000  Level FlightAware ADS-B
Wed 04:43:30 PM 37.5090 -92.2050 270° West 433 498 36,000  Level FlightAware ADS-B
Wed 04:44:02 PM 37.5040 -92.2840 265° West 435 501 36,000  Level FlightAware ADS-B
Wed 04:44:40 PM 37.4900 -92.3820 260° West 441 507 36,000  Level FlightAware ADS-B
Wed 04:45:12 PM 37.4790 -92.4620 260° West 447 514 36,000  Level FlightAware ADS-B
Wed 04:45:48 PM 37.4640 -92.5550 259° West 451 519 36,000  Level FlightAware ADS-B
Wed 04:46:20 PM 37.4520 -92.6350 259° West 450 518 36,000  Level FlightAware ADS-B
Wed 04:46:56 PM 37.4380 -92.7290 259° West 451 519 36,000  Level FlightAware ADS-B
Wed 04:47:32 PM 37.4230 -92.8220 259° West 453 521 36,000  Level FlightAware ADS-B
Wed 04:48:10 PM 37.4070 -92.9200 258° West 455 524 36,000  Level FlightAware ADS-B
Wed 04:48:42 PM 37.3940 -93.0040 259° West 456 525 36,000  Level FlightAware ADS-B
Wed 04:49:18 PM 37.3790 -93.0960 258° West 456 525 36,000  Level FlightAware ADS-B
Wed 04:49:54 PM 37.3640 -93.1900 259° West 453 521 36,000  Level FlightAware ADS-B
Wed 04:50:20 PM 37.3540 -93.2560 259° West 453 521 36,000  Level FlightAware ADS-B
Wed 04:50:58 PM 37.3380 -93.3530 258° West 451 519 36,000  Level FlightAware ADS-B
Wed 04:51:32 PM 37.3230 -93.4410 258° West 449 517 36,000  Level FlightAware ADS-B
Wed 04:52:07 PM 37.3090 -93.5290 259° West 447 514 36,000  Level FlightAware ADS-B
Wed 04:52:44 PM 37.2940 -93.6230 259° West 446 513 36,000  Level FlightAware ADS-B
Wed 04:53:16 PM 37.2800 -93.7040 258° West 445 512 36,000  Level FlightAware ADS-B
Wed 04:53:48 PM 37.2670 -93.7860 259° West 443 510 36,000  Level FlightAware ADS-B
Wed 04:54:28 PM 37.2500 -93.8850 258° West 442 509 36,000  Level FlightAware ADS-B
Wed 04:55:04 PM 37.2350 -93.9760 258° West 441 507 36,000  Level FlightAware ADS-B
Wed 04:55:36 PM 37.2220 -94.0550 258° West 441 507 36,000  Level FlightAware ADS-B
Wed 04:56:12 PM 37.2060 -94.1450 257° West 440 506 36,000  Level FlightAware ADS-B
Wed 04:56:48 PM 37.1910 -94.2340 258° West 440 506 36,000  Level FlightAware ADS-B
Wed 04:57:22 PM 37.1770 -94.3190 258° West 440 506 36,000  Level FlightAware ADS-B
Wed 04:57:58 PM 37.1610 -94.4090 257° West 439 505 36,000  Level FlightAware ADS-B
Wed 04:58:32 PM 37.1470 -94.4940 258° West 439 505 36,000  Level FlightAware ADS-B
Wed 04:59:08 PM 37.1310 -94.5820 257° West 440 506 36,000  Level FlightAware ADS-B
Wed 04:59:40 PM 37.1180 -94.6620 259° West 439 505 36,000  Level FlightAware ADS-B
Wed 05:00:14 PM 37.1030 -94.7480 258° West 440 506 36,000  Level FlightAware ADS-B
Wed 05:00:52 PM 37.0860 -94.8420 257° West 439 505 36,000  Level FlightAware ADS-B
Wed 05:01:24 PM 37.0720 -94.9210 258° West 440 506 36,000  Level FlightAware ADS-B
Wed 05:02:02 PM 37.0550 -95.0160 257° West 440 506 36,000  Level FlightAware ADS-B
Wed 05:02:38 PM 37.0390 -95.1040 257° West 440 506 36,000  Level FlightAware ADS-B
Wed 05:03:12 PM 37.0240 -95.1910 258° West 441 507 36,000  Level FlightAware ADS-B
Wed 05:03:48 PM 37.0080 -95.2780 257° West 441 507 36,000  Level FlightAware ADS-B
Wed 05:04:24 PM 36.9920 -95.3680 257° West 442 509 36,000  Level FlightAware ADS-B
Wed 05:04:54 PM 36.9790 -95.4430 258° West 442 509 36,000  Level FlightAware ADS-B
Wed 05:05:32 PM 36.9610 -95.5380 257° West 442 509 36,000  Level FlightAware ADS-B
Wed 05:06:07 PM 36.9460 -95.6210 257° West 442 509 36,000  Level FlightAware ADS-B
Wed 05:06:43 PM 36.9290 -95.7130 257° West 443 510 36,000  Level FlightAware ADS-B
Wed 05:07:16 PM 36.9140 -95.7960 257° West 443 510 36,000  Level FlightAware ADS-B
Wed 05:08:00 PM 36.8930 -95.9060 257° West 444 511 36,000  Level FlightAware ADS-B
Wed 05:08:36 PM 36.8770 -95.9970 258° West 444 511 36,000  Level FlightAware ADS-B
Wed 05:09:12 PM 36.8600 -96.0840 256° West 444 511 36,000  Level FlightAware ADS-B
Wed 05:09:44 PM 36.8450 -96.1640 257° West 444 511 36,000  Level FlightAware ADS-B
Wed 05:10:20 PM 36.8280 -96.2530 257° West 445 512 36,000  Level FlightAware ADS-B
Wed 05:10:54 PM 36.8130 -96.3370 257° West 445 512 36,000  Level FlightAware ADS-B
Wed 05:11:28 PM 36.7970 -96.4180 256° West 445 512 36,000  Level FlightAware ADS-B
Wed 05:12:04 PM 36.7790 -96.5130 257° West 445 512 36,000  Level FlightAware ADS-B
Wed 05:12:41 PM 36.7610 -96.6050 256° West 445 512 36,000  Level FlightAware ADS-B
Wed 05:13:16 PM 36.7440 -96.6950 257° West 444 511 36,000  Level FlightAware ADS-B
Wed 05:13:52 PM 36.7270 -96.7830 256° West 444 511 36,000  Level FlightAware ADS-B
Wed 05:14:25 PM 36.7110 -96.8640 256° West 444 511 36,000  Level FlightAware ADS-B
Wed 05:15:02 PM 36.6930 -96.9570 256° West 444 511 36,000  Level FlightAware ADS-B
Wed 05:15:34 PM 36.6770 -97.0360 256° West 444 511 36,000  Level FlightAware ADS-B
Wed 05:16:11 PM 36.6590 -97.1290 256° West 444 511 36,000  Level FlightAware ADS-B
Wed 05:16:46 PM 36.6420 -97.2160 256° West 443 510 36,000  Level FlightAware ADS-B
Wed 05:17:23 PM 36.6240 -97.3070 256° West 443 510 36,000  Level FlightAware ADS-B
Wed 05:17:55 PM 36.6080 -97.3860 256° West 444 511 36,000  Level FlightAware ADS-B
Wed 05:18:28 PM 36.5920 -97.4650 256° West 443 510 36,000  Level FlightAware ADS-B
Wed 05:19:06 PM 36.5730 -97.5610 256° West 442 509 36,000  Level FlightAware ADS-B
Wed 05:19:43 PM 36.5550 -97.6500 256° West 442 509 36,000  Level FlightAware ADS-B
Wed 05:20:14 PM 36.5390 -97.7270 256° West 442 509 36,000  Level FlightAware ADS-B
Wed 05:20:50 PM 36.5210 -97.8170 256° West 442 509 36,000  Level FlightAware ADS-B
Wed 05:21:27 PM 36.5020 -97.9090 256° West 441 507 36,000  Level FlightAware ADS-B
Wed 05:22:00 PM 36.4860 -97.9880 256° West 440 506 36,000  Level FlightAware ADS-B
Wed 05:22:35 PM 36.4690 -98.0730 256° West 440 506 36,000  Level FlightAware ADS-B
Wed 05:23:13 PM 36.4490 -98.1670 255° West 440 506 36,000  Level FlightAware ADS-B
Wed 05:23:46 PM 36.4320 -98.2480 255° West 439 505 36,000  Level FlightAware ADS-B
Wed 05:24:21 PM 36.4150 -98.3340 256° West 439 505 36,000  Level FlightAware ADS-B
Wed 05:24:55 PM 36.3970 -98.4160 255° West 439 505 36,000  Level FlightAware ADS-B
Wed 05:25:30 PM 36.3800 -98.5010 256° West 439 505 36,000  Level FlightAware ADS-B
Wed 05:26:07 PM 36.3610 -98.5900 255° West 438 504 36,000  Level FlightAware ADS-B
Wed 05:26:44 PM 36.3420 -98.6810 255° West 438 504 36,000  Level FlightAware ADS-B
Wed 05:27:16 PM 36.3250 -98.7580 255° West 438 504 36,000  Level FlightAware ADS-B
Wed 05:27:51 PM 36.3070 -98.8420 255° West 438 504 36,000  Level FlightAware ADS-B
Wed 05:28:28 PM 36.2890 -98.9290 256° West 437 503 36,000  Level FlightAware ADS-B
Wed 05:28:58 PM 36.2730 -99.0030 255° West 437 503 36,000  Level FlightAware ADS-B
Wed 05:29:37 PM 36.2520 -99.1000 255° West 437 503 36,000  Level FlightAware ADS-B
Wed 05:30:12 PM 36.2340 -99.1800 254° West 438 504 36,000  Level FlightAware ADS-B
Wed 05:30:49 PM 36.2150 -99.2710 256° West 437 503 36,000  Level FlightAware ADS-B
Wed 05:31:19 PM 36.1980 -99.3450 254° West 437 503 36,000  Level FlightAware ADS-B
Wed 05:31:56 PM 36.1790 -99.4350 255° West 438 504 36,000  Level FlightAware ADS-B
Wed 05:32:33 PM 36.1590 -99.5240 254° West 438 504 36,000  Level FlightAware ADS-B
Wed 05:33:06 PM 36.1420 -99.6030 255° West 438 504 36,000  Level FlightAware ADS-B
Wed 05:33:39 PM 36.1240 -99.6840 255° West 438 504 36,000  Level FlightAware ADS-B
Wed 05:34:17 PM 36.1040 -99.7740 255° West 438 504 36,000  Level FlightAware ADS-B
Wed 05:34:53 PM 36.0850 -99.8620 255° West 438 504 36,000  Level FlightAware ADS-B
Wed 05:35:23 PM 36.0680 -99.9350 254° West 437 503 36,000  Level FlightAware ADS-B
Wed 05:35:58 PM 36.0490 -100.0190 254° West 438 504 36,000  Level FlightAware ADS-B
Wed 05:36:37 PM 36.0280 -100.1130 255° West 437 503 36,000  Level FlightAware ADS-B
Wed 05:37:14 PM 36.0090 -100.1980 255° West 438 504 36,000  Level FlightAware ADS-B
Wed 05:37:46 PM 35.9910 -100.2780 254° West 438 504 36,000  Level FlightAware ADS-B
Wed 05:38:22 PM 35.9710 -100.3640 254° West 438 504 36,000  Level FlightAware ADS-B
Wed 05:38:56 PM 35.9530 -100.4450 255° West 438 504 36,000  Level FlightAware ADS-B
Wed 05:39:31 PM 35.9330 -100.5300 254° West 438 504 36,000  Level FlightAware ADS-B
Wed 05:40:16 PM 35.9080 -100.6380 254° West 438 504 36,000  Level FlightAware ADS-B
Wed 05:40:49 PM 35.8910 -100.7120 254° West 438 504 36,000  Level FlightAware ADS-B
Wed 05:41:24 PM 35.8710 -100.7990 254° West 437 503 36,000  Level FlightAware ADS-B
Wed 05:42:02 PM 35.8530 -100.8780 254° West 437 503 36,000  Level FlightAware ADS-B
Wed 05:42:38 PM 35.8360 -100.9510 254° West 437 503 36,000  Level FlightAware ADS-B
Wed 05:43:24 PM 35.8140 -101.0450 254° West 437 503 36,000  Level FlightAware ADS-B
Wed 05:44:02 PM 35.7960 -101.1230 254° West 437 503 36,000  Level FlightAware ADS-B
Wed 05:44:39 PM 35.7780 -101.1980 254° West 437 503 36,000  Level FlightAware ADS-B
Wed 05:45:15 PM 35.7610 -101.2710 254° West 437 503 36,000  Level FlightAware ADS-B
Wed 05:45:51 PM 35.7440 -101.3440 254° West 437 503 36,000  Level FlightAware ADS-B
Wed 05:46:25 PM 35.7280 -101.4140 254° West 437 503 36,000  Level FlightAware ADS-B
Wed 05:47:01 PM 35.7110 -101.4870 254° West 437 503 36,000  Level FlightAware ADS-B
Wed 05:47:38 PM 35.6930 -101.5620 254° West 437 503 36,000  Level FlightAware ADS-B
Wed 05:48:14 PM 35.6760 -101.6350 254° West 437 503 36,000  Level FlightAware ADS-B
Wed 05:48:51 PM 35.6590 -101.7110 255° West 437 503 36,000  Level FlightAware ADS-B
Wed 05:49:27 PM 35.6420 -101.7840 254° West 437 503 36,000  Level FlightAware ADS-B
Wed 05:50:04 PM 35.6240 -101.8590 254° West 437 503 36,000  Level FlightAware ADS-B
Wed 05:50:40 PM 35.6070 -101.9320 254° West 437 503 36,000  Level FlightAware ADS-B
Wed 05:51:16 PM 35.5900 -102.0050 254° West 437 503 36,000  Level FlightAware ADS-B
Wed 05:52:43 PM 35.4897 -102.3869 254° West 432 497 36,000  Level Albuquerque Center
Wed 05:53:47 PM 35.4550 -102.5269 253° West 431 496 36,000  Level Albuquerque Center
Wed 05:54:48 PM 35.4178 -102.6750 253° West 429 494 36,000  Level Albuquerque Center
Wed 05:55:49 PM 35.3822 -102.8169 253° West 431 496 36,000  Level Albuquerque Center
Wed 05:56:52 PM 35.3406 -102.9819 253° West 430 495 36,000  Level Albuquerque Center
Wed 05:57:53 PM 35.3044 -103.1225 253° West 425 489 36,000  Level Albuquerque Center
Wed 05:58:57 PM 35.2686 -103.2633 253° West 426 490 36,000  Level Albuquerque Center
Wed 06:00:00 PM 35.2325 -103.4036 253° West 425 489 36,000  Level Albuquerque Center
Wed 06:01:01 PM 35.1961 -103.5439 252° West 425 489 36,000  Level Albuquerque Center
Wed 06:02:01 PM 35.1783 -103.6886 261° West 428 493 36,000  Level Albuquerque Center
Wed 06:03:05 PM 35.1717 -103.8356 267° West 428 493 36,000 -48 Level Albuquerque Center
Wed 06:04:06 PM 35.1644 -103.9942 267° West 430 495 35,900 -624 Descending Albuquerque Center
Wed 06:05:10 PM 35.1578 -104.1403 267° West 433 498 34,700 -1,210 Descending Albuquerque Center
Wed 06:06:10 PM 35.1508 -104.2908 267° West 440 506 33,400 -1,300 Descending Albuquerque Center
Wed 06:07:10 PM 35.1431 -104.4406 266° West 448 516 32,100 -677 Descending Albuquerque Center
Wed 06:08:14 PM 35.1339 -104.6219 267° West 450 518 32,000 -48 Descending Albuquerque Center
Wed 06:09:14 PM 35.1258 -104.7769 266° West 453 521 32,000  Level Albuquerque Center
Wed 06:10:18 PM 35.1206 -104.9322 268° West 454 522 32,000  Level Albuquerque Center
Wed 06:11:19 PM 35.1156 -105.0883 268° West 456 525 32,000 -197 Level Albuquerque Center
Wed 06:12:20 PM 35.1100 -105.2439 268° West 454 522 31,600 -871 Descending Albuquerque Center
Wed 06:13:23 PM 35.1044 -105.3986 268° West 453 521 30,200 -2,000 Descending Albuquerque Center
Wed 06:14:23 PM 35.0981 -105.5597 267° West 459 528 27,500 -2,906 Descending Albuquerque Center
Wed 06:20:18 PM 35.0430 -106.3940 267° West 297 342 10,100 -2,872 Descending FlightAware ADS-B
Wed 06:20:37 PM 35.0460 -106.4230 277° West 265 305 9,600 -2,100 Descending FlightAware ADS-B
Wed 06:21:18 PM 35.0400 -106.4780 262° West 237 273 8,000 -1,455 Descending FlightAware ADS-B
Wed 06:21:43 PM 35.0280 -106.5030 240° Southwest 237 273 8,000 -1,622 Level FlightAware ADS-B
Wed 06:21:55 PM 35.0340 -106.5180 296° West 197 227 7,000 -3,000 Descending FlightAware ADS-B
Wed 06:22:11 PM 35.0420 -106.5330 303° West 180 207 6,600 -1,714 Descending FlightAware ADS-B
Wed 06:22:23 PM 35.0440 -106.5440 283° West 179 206 6,200 -615 Descending FlightAware ADS-B
Wed 06:22:50 PM 35.0470 -106.5670 279° West 179 206 6,200 720 Level FlightAware ADS-B
Wed 06:23:13 PM 35.0440 -106.5920 262° West 171 197 6,800 1,902 Climbing FlightAware ADS-B
Wed 06:23:31 PM 35.0440 -106.6090 270° West 178 205 7,500 1,714 Climbing FlightAware ADS-B
Wed 06:23:55 PM 35.0370 -106.6340 251° West 216 249 8,000 1,154 Climbing FlightAware ADS-B
Wed 06:23:57 PM 35.0350 -106.6360 219° Southwest 224 258 8,000  Level FlightAware ADS-B
Wed 06:24:07 PM 35.0250 -106.6420 206° Southwest 234 269 8,000  Level FlightAware ADS-B
Wed 06:24:15 PM 35.0170 -106.6430 186° South 236 272 8,000  Level FlightAware ADS-B
Wed 06:24:45 PM 34.9870 -106.6440 182° South 236 272 8,000  Level FlightAware ADS-B
Wed 06:24:53 PM 34.9780 -106.6340 138° Southeast 222 255 8,000  Level FlightAware ADS-B
Wed 06:25:05 PM 34.9710 -106.6210 123° Southeast 226 260 8,000  Level FlightAware ADS-B
Wed 06:25:13 PM 34.9700 -106.6090 96° East 231 266 8,000  Level FlightAware ADS-B
Wed 06:25:39 PM 34.9690 -106.5800 92° East 231 266 8,000  Level FlightAware ADS-B
Wed 06:26:01 PM 34.9720 -106.5530 82° East 210 242 8,000  Level FlightAware ADS-B
Wed 06:26:13 PM 34.9730 -106.5360 86° East 211 243 8,000  Level FlightAware ADS-B
Wed 06:26:37 PM 34.9750 -106.5080 85° East 213 245 8,000  Level FlightAware ADS-B
Wed 06:26:53 PM 34.9790 -106.4890 76° East 215 247 8,000 -250 Level FlightAware ADS-B
Wed 06:27:01 PM 34.9820 -106.4820 62° Northeast 214 246 7,900 -300 Descending FlightAware ADS-B
Wed 06:27:13 PM 34.9910 -106.4720 42° Northeast 202 232 7,900 -545 Level FlightAware ADS-B
Wed 06:27:23 PM 34.9990 -106.4670 27° Northeast 197 227 7,700 -300 Descending FlightAware ADS-B
Wed 06:27:53 PM 35.0210 -106.4590 17° North 197 227 7,700 -545 Level FlightAware ADS-B
Wed 06:28:07 PM 35.0370 -106.4740 322° Northwest 178 205 7,300 -1,667 Descending FlightAware ADS-B
Wed 06:28:11 PM 35.0400 -106.4770 321° Northwest 172 198 7,200 -200 Descending FlightAware ADS-B
Wed 06:28:37 PM 35.0520 -106.4920 314° West 172 198 7,200 -882 Level FlightAware ADS-B
Wed 06:29:53 PM 35.0436 -106.5592 314° West 160 184 5,700 -777 Descending Albuquerque Center
Wed 06:30:56 PM 35.0442 -106.6097 271° West 160 184 5,400 -286 Descending Albuquerque Center

Login

Don't have an account? Register now (free) for customized features, flight alerts, and more!